createdAt,value
2018-08-23T00:00:52.194Z,97308.08
2018-08-23T00:03:27.769Z,97302.91
2018-08-23T00:05:57.094Z,97306.36
2018-08-23T00:08:26.000Z,97306.78
2018-08-23T00:10:55.033Z,97305.08
2018-08-23T00:13:23.881Z,97307.20
2018-08-23T00:15:52.379Z,97306.78
2018-08-23T00:18:20.854Z,97303.33
2018-08-23T00:20:49.345Z,97305.48
2018-08-23T00:23:17.846Z,97303.33
2018-08-23T00:25:46.340Z,97304.63
2018-08-23T00:28:14.821Z,97308.92
2018-08-23T00:30:46.094Z,97309.34
2018-08-23T00:33:14.587Z,97310.64
2018-08-23T00:35:43.069Z,97306.36
2018-08-23T00:38:11.568Z,97307.64
2018-08-23T00:40:41.359Z,97301.63
2018-08-23T00:43:10.996Z,97306.34
2018-08-23T00:45:39.625Z,97308.94
2018-08-23T00:48:08.223Z,97307.64
2018-08-23T00:50:53.634Z,97307.19
2018-08-23T00:53:22.109Z,97305.91
2018-08-23T00:56:00.643Z,97308.06
2018-08-23T00:58:29.125Z,97308.06
2018-08-23T01:01:04.032Z,97304.62
2018-08-23T01:03:35.217Z,97303.33
2018-08-23T01:06:04.197Z,97307.66
2018-08-23T01:08:34.287Z,97305.06
2018-08-23T01:11:03.900Z,97303.79
2018-08-23T01:13:32.386Z,97305.08
2018-08-23T01:16:00.886Z,97302.50
2018-08-23T01:18:29.374Z,97305.91
2018-08-23T01:20:57.858Z,97305.50
2018-08-23T01:23:26.369Z,97308.50
2018-08-23T01:25:54.858Z,97305.09
2018-08-23T01:28:23.343Z,97302.92
2018-08-23T01:30:51.826Z,97299.49
2018-08-23T01:33:22.303Z,97297.36
2018-08-23T01:35:51.751Z,97294.79
2018-08-23T01:38:20.263Z,97289.64
2018-08-23T01:40:48.814Z,97292.22
2018-08-23T01:43:17.295Z,97292.64
2018-08-23T01:45:45.782Z,97286.19
2018-08-23T01:48:14.295Z,97290.93
2018-08-23T01:50:42.860Z,97289.19
2018-08-23T01:53:11.399Z,97286.20
2018-08-23T01:55:39.878Z,97289.19
2018-08-23T01:58:08.405Z,97284.92
2018-08-23T02:00:37.216Z,97292.64
2018-08-23T02:03:05.883Z,97283.22
2018-08-23T02:05:37.830Z,97279.77
2018-08-23T02:08:06.385Z,97276.33
2018-08-23T02:10:34.875Z,97235.80
2018-08-23T02:13:03.447Z,97282.35
2018-08-23T02:15:42.065Z,97285.34
2018-08-23T02:18:10.629Z,97275.05
2018-08-23T02:20:39.119Z,97275.91
2018-08-23T02:23:07.697Z,97270.77
2018-08-23T02:25:36.177Z,97275.50
2018-08-23T02:28:08.361Z,97270.77
2018-08-23T02:30:48.559Z,97269.89
2018-08-23T02:33:17.583Z,97266.48
2018-08-23T02:35:59.150Z,97270.77
2018-08-23T02:38:29.040Z,97269.06
2018-08-23T02:40:57.632Z,97265.62
2018-08-23T02:43:26.129Z,97263.92
2018-08-23T02:45:55.258Z,97263.47
2018-08-23T02:48:24.610Z,97259.61
2018-08-23T02:50:53.716Z,97257.48
2018-08-23T02:53:33.430Z,97262.18
2018-08-23T02:56:06.194Z,97260.89
2018-08-23T02:58:39.918Z,97258.31
2018-08-23T03:01:08.399Z,97261.34
2018-08-23T03:03:37.065Z,97259.61
2018-08-23T03:06:05.559Z,97264.77
2018-08-23T03:08:41.783Z,97259.61
2018-08-23T03:11:10.271Z,97261.77
2018-08-23T03:13:43.847Z,97261.76
2018-08-23T03:16:12.804Z,97254.84
2018-08-23T03:18:41.286Z,97258.20
2018-08-23T03:21:09.803Z,97264.58
2018-08-23T03:23:39.524Z,97276.97
2018-08-23T03:26:08.034Z,97281.14
2018-08-23T03:28:37.723Z,97282.78
2018-08-23T03:31:07.437Z,97290.40
2018-08-23T03:33:36.333Z,97287.38
2018-08-23T03:36:04.847Z,97284.38
2018-08-23T03:38:33.334Z,97281.38
2018-08-23T03:41:03.169Z,97281.41
2018-08-23T03:43:31.666Z,97282.73
2018-08-23T03:46:00.766Z,97282.77
2018-08-23T03:48:35.546Z,97280.23
2018-08-23T03:51:04.038Z,97283.71
2018-08-23T03:53:45.435Z,97276.43
2018-08-23T03:56:13.990Z,97280.34
2018-08-23T03:58:42.572Z,97279.95
2018-08-23T04:01:13.675Z,97284.25
2018-08-23T04:03:42.476Z,97245.05
2018-08-23T04:06:23.915Z,97284.33
2018-08-23T04:08:52.418Z,97277.94
2018-08-23T04:11:20.914Z,97286.09
2018-08-23T04:13:50.113Z,97288.67
2018-08-23T04:16:28.823Z,97280.53
2018-08-23T04:18:57.716Z,97283.55
2018-08-23T04:21:26.811Z,97280.58
2018-08-23T04:23:55.436Z,97275.86
2018-08-23T04:26:25.036Z,97274.99
2018-08-23T04:28:53.526Z,97274.58
2018-08-23T04:31:22.061Z,97274.59
2018-08-23T04:33:50.588Z,97281.91
2018-08-23T04:36:27.923Z,97287.05
2018-08-23T04:39:06.164Z,97280.63
2018-08-23T04:41:34.740Z,97284.05
2018-08-23T04:44:09.653Z,97288.78
2018-08-23T04:46:38.162Z,97292.64
2018-08-23T04:49:07.743Z,97289.66
2018-08-23T04:51:37.399Z,97293.94
2018-08-23T04:54:06.247Z,97290.95
2018-08-23T04:56:34.742Z,97285.80
2018-08-23T04:59:03.327Z,97286.66
2018-08-23T05:01:31.838Z,97291.39
2018-08-23T05:04:00.425Z,97293.55
2018-08-23T05:06:28.898Z,97298.25
2018-08-23T05:08:57.395Z,97291.41
2018-08-23T05:11:25.932Z,97290.12
2018-08-23T05:13:54.468Z,97296.14
2018-08-23T05:16:22.968Z,97286.68
2018-08-23T05:18:51.537Z,97296.57
2018-08-23T05:21:20.043Z,97293.58
2018-08-23T05:23:48.610Z,97296.99
2018-08-23T05:26:18.400Z,97298.73
2018-08-23T05:28:59.374Z,97300.44
2018-08-23T05:31:29.135Z,97300.88
2018-08-23T05:33:59.998Z,97297.91
2018-08-23T05:36:28.513Z,97302.16
2018-08-23T05:38:57.073Z,97306.52
2018-08-23T05:41:25.582Z,97308.64
2018-08-23T05:44:12.477Z,97310.39
2018-08-23T05:46:59.643Z,97313.39
2018-08-23T05:49:28.341Z,97306.54
2018-08-23T05:51:58.455Z,97307.83
2018-08-23T05:54:26.955Z,97302.67
2018-08-23T05:56:55.476Z,97302.23
2018-08-23T05:59:24.526Z,97305.27
2018-08-23T06:01:53.061Z,97304.41
2018-08-23T06:04:32.765Z,97300.55
2018-08-23T06:07:01.309Z,97297.10
2018-08-23T06:09:29.931Z,97297.56
2018-08-23T06:11:58.455Z,97298.40
2018-08-23T06:14:27.095Z,97300.98
2018-08-23T06:16:57.114Z,97298.40
2018-08-23T06:19:26.302Z,97300.15
2018-08-23T06:21:54.979Z,97302.72
2018-08-23T06:24:27.550Z,97304.02
2018-08-23T06:26:56.088Z,97307.44
2018-08-23T06:29:32.649Z,97306.16
2018-08-23T06:32:10.379Z,97304.03
2018-08-23T06:34:55.565Z,97300.17
2018-08-23T06:37:24.174Z,97297.59
2018-08-23T06:39:52.678Z,97298.88
2018-08-23T06:42:25.640Z,97294.14
2018-08-23T06:44:54.871Z,97293.28
2018-08-23T06:47:24.841Z,97295.03
2018-08-23T06:49:54.138Z,97297.17
2018-08-23T06:52:42.779Z,97299.75
2018-08-23T06:55:19.580Z,97295.04
2018-08-23T06:57:49.674Z,97289.89
2018-08-23T07:00:23.452Z,97292.47
2018-08-23T07:02:52.009Z,97291.19
2018-08-23T07:05:20.851Z,97289.90
2018-08-23T07:07:49.560Z,97281.32
2018-08-23T07:10:18.072Z,97283.03
2018-08-23T07:12:46.599Z,97281.76
2018-08-23T07:15:15.142Z,97280.94
2018-08-23T07:17:43.748Z,97275.80
2018-08-23T07:20:16.392Z,97275.36
2018-08-23T07:22:45.169Z,97276.66
2018-08-23T07:25:16.199Z,97280.12
2018-08-23T07:27:44.706Z,97282.70
2018-08-23T07:30:18.444Z,97282.72
2018-08-23T07:32:48.081Z,97278.86
2018-08-23T07:35:18.004Z,97283.16
2018-08-23T07:37:48.854Z,97279.75
2018-08-23T07:40:19.497Z,97276.73
2018-08-23T07:42:49.187Z,97278.03
2018-08-23T07:45:17.735Z,97282.34
2018-08-23T07:47:54.803Z,97281.08
2018-08-23T07:50:23.361Z,97282.80
2018-08-23T07:52:53.249Z,97283.22
2018-08-23T07:55:21.698Z,97280.24
2018-08-23T07:57:50.195Z,97275.96
2018-08-23T08:00:41.057Z,97273.81
2018-08-23T08:03:10.717Z,97277.28
2018-08-23T08:05:40.847Z,97275.55
2018-08-23T08:08:10.359Z,97279.02
2018-08-23T08:10:42.351Z,97278.15
2018-08-23T08:13:10.890Z,97273.91
2018-08-23T08:15:39.430Z,97281.65
2018-08-23T08:18:16.840Z,97285.53
2018-08-23T08:21:04.982Z,97278.67
2018-08-23T08:23:33.925Z,97282.10
2018-08-23T08:26:02.429Z,97274.83
2018-08-23T08:28:30.951Z,97274.38
2018-08-23T08:31:02.879Z,97284.27
2018-08-23T08:33:35.984Z,97278.70
2018-08-23T08:36:05.340Z,97281.27
2018-08-23T08:38:34.462Z,97289.42
2018-08-23T08:41:03.008Z,97283.83
2018-08-23T08:43:31.517Z,97285.96
2018-08-23T08:46:00.605Z,97285.95
2018-08-23T08:48:32.351Z,97290.69
2018-08-23T08:51:17.688Z,97292.84
2018-08-23T08:53:46.722Z,97295.84
2018-08-23T08:56:15.360Z,97294.55
2018-08-23T08:58:44.039Z,97289.80
2018-08-23T09:01:12.526Z,97291.53
2018-08-23T09:03:41.075Z,97291.95
2018-08-23T09:06:10.866Z,97293.25
2018-08-23T09:08:39.770Z,97285.94
2018-08-23T09:11:08.390Z,97287.68
2018-08-23T09:13:42.318Z,97282.06
2018-08-23T09:16:11.752Z,97288.09
2018-08-23T09:18:43.395Z,97285.52
2018-08-23T09:21:11.860Z,97288.52
2018-08-23T09:23:40.454Z,97288.53
2018-08-23T09:26:08.952Z,97291.11
2018-08-23T09:28:37.446Z,97286.84
2018-08-23T09:31:06.086Z,97282.11
2018-08-23T09:33:34.647Z,97277.84
2018-08-23T09:36:03.131Z,97285.16
2018-08-23T09:38:31.643Z,97283.88
2018-08-23T09:41:00.152Z,97289.86
2018-08-23T09:43:28.638Z,97283.83
2018-08-23T09:45:57.118Z,97289.02
2018-08-23T09:48:25.628Z,97287.27
2018-08-23T09:50:54.186Z,97295.46
2018-08-23T09:53:25.740Z,97300.62
2018-08-23T09:55:56.491Z,97304.48
2018-08-23T09:58:30.236Z,97308.35
2018-08-23T10:01:04.103Z,97312.22
2018-08-23T10:03:37.808Z,97307.47
2018-08-23T10:06:11.638Z,97314.80
2018-08-23T10:08:45.352Z,97313.51
2018-08-23T10:11:19.503Z,97309.20
2018-08-23T10:13:53.218Z,97307.52
2018-08-23T10:16:27.030Z,97264.84
2018-08-23T10:18:57.543Z,97307.96
2018-08-23T10:21:31.243Z,97298.51
2018-08-23T10:24:06.694Z,97305.00
2018-08-23T10:26:35.284Z,97299.02
2018-08-23T10:29:03.765Z,97297.74
2018-08-23T10:31:32.270Z,97289.14
2018-08-23T10:34:00.782Z,97302.47
2018-08-23T10:36:29.287Z,97291.33
2018-08-23T10:38:57.824Z,97295.20
2018-08-23T10:41:26.334Z,97293.48
2018-08-23T10:43:54.858Z,97293.07
2018-08-23T10:46:23.362Z,97302.53
2018-08-23T10:48:51.888Z,97297.41
2018-08-23T10:51:20.409Z,97294.42
2018-08-23T10:53:48.962Z,97301.77
2018-08-23T10:56:17.445Z,97295.73
2018-08-23T10:58:45.987Z,97293.58
2018-08-23T11:01:14.514Z,97286.70
2018-08-23T11:03:43.133Z,97273.80
2018-08-23T11:06:11.636Z,97275.11
2018-08-23T11:08:40.187Z,97270.36
2018-08-23T11:11:14.119Z,97266.95
2018-08-23T11:13:47.687Z,97263.08
2018-08-23T11:16:21.489Z,97257.46
2018-08-23T11:18:55.148Z,97254.88
2018-08-23T11:21:23.695Z,97248.89
2018-08-23T11:23:52.177Z,97251.47
2018-08-23T11:26:25.084Z,97254.48
2018-08-23T11:28:53.615Z,97253.19
2018-08-23T11:31:27.259Z,97247.61
2018-08-23T11:33:55.764Z,97248.45
2018-08-23T11:36:24.298Z,97247.16
2018-08-23T11:38:52.835Z,97245.03
2018-08-23T11:41:21.361Z,97237.70
2018-08-23T11:43:49.903Z,97235.54
2018-08-23T11:46:20.696Z,97231.66
2018-08-23T11:48:49.678Z,97216.63
2018-08-23T11:51:18.893Z,97225.66
2018-08-23T11:53:47.882Z,97223.08
2018-08-23T11:56:16.411Z,97205.42
2018-08-23T11:58:44.899Z,97210.61
2018-08-23T12:01:14.830Z,97211.48
2018-08-23T12:03:43.623Z,97214.48
2018-08-23T12:06:13.222Z,97205.44
2018-08-23T12:08:42.036Z,97212.31
2018-08-23T12:11:10.572Z,97205.44
2018-08-23T12:13:39.384Z,97214.91
2018-08-23T12:16:10.436Z,97213.19
2018-08-23T12:18:39.459Z,97220.52
2018-08-23T12:21:08.201Z,97216.64
2018-08-23T12:23:36.855Z,97231.27
2018-08-23T12:26:05.534Z,97220.06
2018-08-23T12:28:39.223Z,97221.36
2018-08-23T12:31:07.723Z,97222.65
2018-08-23T12:33:36.267Z,97216.64
2018-08-23T12:36:08.107Z,97217.06
2018-08-23T12:38:41.835Z,97208.90
2018-08-23T12:41:15.548Z,97198.11
2018-08-23T12:43:45.955Z,97201.14
2018-08-23T12:46:14.664Z,97189.53
2018-08-23T12:48:43.539Z,97180.91
2018-08-23T12:51:12.032Z,97181.33
2018-08-23T12:53:40.549Z,97188.23
2018-08-23T12:56:09.047Z,97184.78
2018-08-23T12:58:37.529Z,97180.48
2018-08-23T13:01:06.014Z,97179.61
2018-08-23T13:03:34.558Z,97168.86
2018-08-23T13:06:03.145Z,97148.17
2018-08-23T13:08:31.578Z,97152.91
2018-08-23T13:11:00.142Z,97142.58
2018-08-23T13:13:28.600Z,97144.31
2018-08-23T13:15:57.073Z,97135.70
2018-08-23T13:18:25.561Z,97139.57
2018-08-23T13:20:54.062Z,97136.99
2018-08-23T13:23:22.567Z,97133.98
2018-08-23T13:25:54.908Z,97139.57
2018-08-23T13:28:23.958Z,97124.49
2018-08-23T13:30:52.737Z,97124.50
2018-08-23T13:33:21.367Z,97118.91
2018-08-23T13:35:50.119Z,97117.62
2018-08-23T13:38:19.109Z,97118.49
2018-08-23T13:40:47.672Z,97109.45
2018-08-23T13:43:16.177Z,97104.70
2018-08-23T13:45:44.867Z,97106.86
2018-08-23T13:48:13.369Z,97100.41
2018-08-23T13:50:41.896Z,97092.67
2018-08-23T13:53:10.416Z,97089.21
2018-08-23T13:55:38.926Z,97078.88
2018-08-23T13:58:07.406Z,97088.34
2018-08-23T14:00:41.714Z,97084.91
2018-08-23T14:03:11.071Z,97080.17
2018-08-23T14:05:40.624Z,97072.43
2018-08-23T14:08:09.450Z,97072.42
2018-08-23T14:10:37.953Z,97066.84
2018-08-23T14:13:06.472Z,97066.81
2018-08-23T14:15:40.216Z,97064.68
2018-08-23T14:18:08.711Z,97063.36
2018-08-23T14:20:37.267Z,97056.91
2018-08-23T14:23:05.755Z,97057.33
2018-08-23T14:25:34.280Z,97054.75
2018-08-23T14:28:02.794Z,97052.63
2018-08-23T14:30:31.275Z,97046.61
2018-08-23T14:32:59.809Z,97040.16
2018-08-23T14:35:28.314Z,97047.89
2018-08-23T14:37:56.848Z,97047.02
2018-08-23T14:40:25.379Z,97043.16
2018-08-23T14:42:53.915Z,97039.74
2018-08-23T14:45:27.688Z,97036.30
2018-08-23T14:48:01.403Z,97032.42
2018-08-23T14:50:29.953Z,97024.27
2018-08-23T14:52:58.619Z,97016.53
2018-08-23T14:55:32.257Z,97019.53
2018-08-23T14:58:00.910Z,97023.41
2018-08-23T15:00:29.479Z,97023.41
2018-08-23T15:02:57.974Z,97027.70
2018-08-23T15:05:26.495Z,97027.70
2018-08-23T15:07:55.044Z,97037.20
2018-08-23T15:10:23.524Z,97047.52
2018-08-23T15:12:52.067Z,97043.66
2018-08-23T15:15:24.702Z,97046.66
2018-08-23T15:17:53.203Z,97038.91
2018-08-23T15:20:21.678Z,97037.63
2018-08-23T15:22:50.174Z,97040.62
2018-08-23T15:25:18.754Z,97044.06
2018-08-23T15:27:47.258Z,97026.89
2018-08-23T15:30:15.750Z,97050.53
2018-08-23T15:32:44.269Z,97040.21
2018-08-23T15:35:13.421Z,97041.91
2018-08-23T15:37:41.933Z,97028.59
2018-08-23T15:40:10.427Z,97037.64
2018-08-23T15:42:39.052Z,97044.95
2018-08-23T15:45:07.607Z,97044.09
2018-08-23T15:47:36.121Z,97048.38
2018-08-23T15:50:04.870Z,97049.67
2018-08-23T15:52:33.392Z,97045.80
2018-08-23T15:55:01.960Z,97050.96
2018-08-23T15:57:30.467Z,97055.70
2018-08-23T15:59:58.974Z,97046.67
2018-08-23T16:02:27.479Z,97050.55
2018-08-23T16:04:56.235Z,97046.25
2018-08-23T16:07:24.737Z,97043.67
2018-08-23T16:09:53.283Z,97035.48
2018-08-23T16:12:21.922Z,97034.19
2018-08-23T16:14:50.429Z,97036.76
2018-08-23T16:17:24.210Z,97041.92
2018-08-23T16:19:57.999Z,97036.77
2018-08-23T16:22:26.486Z,97039.80
2018-08-23T16:24:55.009Z,97039.80
2018-08-23T16:27:23.546Z,97040.22
2018-08-23T16:29:53.140Z,97036.34
2018-08-23T16:32:26.885Z,97034.64
2018-08-23T16:34:55.415Z,97043.22
2018-08-23T16:37:23.990Z,97041.09
2018-08-23T16:39:52.496Z,97038.51
2018-08-23T16:42:20.992Z,97044.09
2018-08-23T16:44:49.481Z,97027.73
2018-08-23T16:47:18.130Z,97021.73
2018-08-23T16:49:46.632Z,97018.30
2018-08-23T16:52:17.376Z,97020.45
2018-08-23T16:54:46.950Z,97015.72
2018-08-23T16:57:15.471Z,97015.30
2018-08-23T16:59:44.019Z,97016.59
2018-08-23T17:02:12.523Z,97008.41
2018-08-23T17:04:42.788Z,97001.53
2018-08-23T17:07:11.680Z,96999.38
2018-08-23T17:09:40.198Z,97003.70
2018-08-23T17:12:08.986Z,96998.09
2018-08-23T17:14:37.567Z,96989.03
2018-08-23T17:17:11.305Z,96982.59
2018-08-23T17:19:39.854Z,96997.23
2018-08-23T17:22:08.412Z,96998.52
2018-08-23T17:24:37.019Z,97003.67
2018-08-23T17:27:05.483Z,97006.68
2018-08-23T17:29:34.015Z,97004.52
2018-08-23T17:32:02.817Z,97011.42
2018-08-23T17:34:31.360Z,97016.58
2018-08-23T17:36:59.871Z,97020.00
2018-08-23T17:39:28.590Z,97028.61
2018-08-23T17:41:57.094Z,97026.91
2018-08-23T17:44:25.632Z,97043.67
2018-08-23T17:46:54.132Z,97047.96
2018-08-23T17:49:22.648Z,97048.38
2018-08-23T17:51:51.236Z,97058.28
2018-08-23T17:54:19.866Z,97055.28
2018-08-23T17:56:48.406Z,97059.15
2018-08-23T17:59:16.954Z,97057.41
2018-08-23T18:01:45.488Z,97055.28
2018-08-23T18:04:13.975Z,97056.57
2018-08-23T18:06:42.529Z,97057.86
2018-08-23T18:09:12.804Z,97052.70
2018-08-23T18:11:41.572Z,97053.98
2018-08-23T18:14:10.263Z,97047.09
2018-08-23T18:16:43.969Z,97043.67
2018-08-23T18:19:12.765Z,97040.22
2018-08-23T18:21:42.300Z,97030.33
2018-08-23T18:24:10.782Z,97027.33
2018-08-23T18:26:39.338Z,97035.48
2018-08-23T18:29:07.838Z,97035.06
2018-08-23T18:31:36.686Z,97032.48
2018-08-23T18:34:05.588Z,97017.43
2018-08-23T18:36:34.088Z,97040.64
2018-08-23T18:39:02.662Z,97034.20
2018-08-23T18:41:31.168Z,97035.06
2018-08-23T18:43:59.669Z,97038.06
2018-08-23T18:46:28.164Z,97035.94
2018-08-23T18:48:59.833Z,97031.61
2018-08-23T18:51:30.464Z,97043.67
2018-08-23T18:53:59.788Z,97047.55
2018-08-23T18:56:29.171Z,97016.55
2018-08-23T18:58:58.022Z,97059.98
2018-08-23T19:01:26.495Z,97056.12
2018-08-23T19:03:54.996Z,97066.44
2018-08-23T19:06:27.676Z,97065.59
2018-08-23T19:08:56.175Z,97073.75
2018-08-23T19:11:24.987Z,97078.91
2018-08-23T19:13:53.530Z,97086.23
2018-08-23T19:16:27.929Z,97084.94
2018-08-23T19:18:56.604Z,97093.52
2018-08-23T19:21:25.129Z,97095.68
2018-08-23T19:23:53.611Z,97102.55
2018-08-23T19:26:22.448Z,97105.58
2018-08-23T19:28:50.952Z,97100.42
2018-08-23T19:31:19.564Z,97107.28
2018-08-23T19:33:48.036Z,97111.58
2018-08-23T19:36:16.529Z,97106.00
2018-08-23T19:38:45.017Z,97108.58
2018-08-23T19:41:13.551Z,97105.58
2018-08-23T19:43:42.039Z,97115.02
2018-08-23T19:46:17.798Z,97115.02
2018-08-23T19:48:47.836Z,97106.86
2018-08-23T19:51:16.366Z,97102.13
2018-08-23T19:53:44.928Z,97105.58
2018-08-23T19:56:13.403Z,97104.70
2018-08-23T19:58:41.920Z,97100.84
2018-08-23T20:01:10.411Z,97099.55
2018-08-23T20:03:38.951Z,97100.42
2018-08-23T20:06:07.567Z,97096.55
2018-08-23T20:08:36.092Z,97093.52
2018-08-23T20:11:04.610Z,97099.13
2018-08-23T20:13:33.124Z,97099.13
2018-08-23T20:16:01.628Z,97099.55
2018-08-23T20:18:30.125Z,97093.09
2018-08-23T20:20:58.744Z,97093.09
2018-08-23T20:23:27.299Z,97092.67
2018-08-23T20:25:55.799Z,97090.52
2018-08-23T20:28:24.385Z,97089.64
2018-08-23T20:30:53.913Z,97090.94
2018-08-23T20:33:22.423Z,97093.97
2018-08-23T20:35:51.016Z,97093.09
2018-08-23T20:38:19.507Z,97092.67
2018-08-23T20:40:48.054Z,97089.23
2018-08-23T20:43:16.560Z,97100.38
2018-08-23T20:45:45.215Z,97108.11
2018-08-23T20:48:13.723Z,97116.30
2018-08-23T20:50:42.222Z,97115.00
2018-08-23T20:53:10.785Z,97131.78
2018-08-23T20:55:39.352Z,97130.03
2018-08-23T20:58:07.866Z,97138.23
2018-08-23T21:00:36.428Z,97143.38
2018-08-23T21:03:04.931Z,97147.24
2018-08-23T21:05:33.451Z,97153.69
2018-08-23T21:08:01.988Z,97156.27
2018-08-23T21:10:30.499Z,97151.53
2018-08-23T21:12:59.002Z,97155.40
2018-08-23T21:15:27.993Z,97151.11
2018-08-23T21:17:56.550Z,97153.69
2018-08-23T21:20:25.001Z,97151.95
2018-08-23T21:22:53.553Z,97157.55
2018-08-23T21:25:22.066Z,97159.68
2018-08-23T21:27:50.595Z,97154.10
2018-08-23T21:30:19.134Z,97155.81
2018-08-23T21:32:48.513Z,97153.68
2018-08-23T21:35:17.044Z,97150.23
2018-08-23T21:37:45.655Z,97149.36
2018-08-23T21:40:14.751Z,97147.65
2018-08-23T21:42:58.150Z,97150.23
2018-08-23T21:45:26.923Z,97145.94
2018-08-23T21:47:55.432Z,97142.91
2018-08-23T21:50:24.125Z,97140.78
2018-08-23T21:52:52.910Z,97140.78
2018-08-23T21:55:25.931Z,97137.75
2018-08-23T21:57:55.460Z,97133.88
2018-08-23T22:00:24.256Z,97134.75
2018-08-23T22:02:52.759Z,97127.43
2018-08-23T22:05:21.252Z,97124.02
2018-08-23T22:07:49.748Z,97119.27
2018-08-23T22:10:18.242Z,97111.96
2018-08-23T22:12:46.771Z,97113.25
2018-08-23T22:15:15.385Z,97112.41
2018-08-23T22:17:43.955Z,97113.70
2018-08-23T22:20:12.435Z,97111.12
2018-08-23T22:22:40.923Z,97112.83
2018-08-23T22:25:09.393Z,97118.85
2018-08-23T22:27:38.023Z,97114.98
2018-08-23T22:30:07.227Z,97117.11
2018-08-23T22:32:35.715Z,97114.98
2018-08-23T22:35:04.445Z,97110.25
2018-08-23T22:37:33.099Z,97106.80
2018-08-23T22:40:01.602Z,97094.77
2018-08-23T22:42:30.468Z,97090.91
2018-08-23T22:44:58.997Z,97090.91
2018-08-23T22:47:27.491Z,97088.33
2018-08-23T22:49:56.021Z,97079.30
2018-08-23T22:52:24.520Z,97078.02
2018-08-23T22:54:53.039Z,97081.01
2018-08-23T22:57:21.578Z,97077.14
2018-08-23T22:59:50.059Z,97074.14
2018-08-23T23:02:23.767Z,97072.86
2018-08-23T23:04:52.301Z,97071.56
2018-08-23T23:07:21.035Z,97068.12
2018-08-23T23:09:49.644Z,97076.30
2018-08-23T23:12:18.123Z,97076.30
2018-08-23T23:14:46.607Z,97077.14
2018-08-23T23:17:15.419Z,97071.15
2018-08-23T23:19:44.050Z,97064.70
2018-08-23T23:22:12.560Z,97062.54
2018-08-23T23:24:46.623Z,97062.54
2018-08-23T23:27:15.166Z,97065.12
2018-08-23T23:29:43.622Z,97058.25
2018-08-23T23:32:12.115Z,97038.03
2018-08-23T23:34:40.638Z,97047.49
2018-08-23T23:37:09.118Z,97056.97
2018-08-23T23:39:37.612Z,97053.09
2018-08-23T23:42:06.170Z,97049.23
2018-08-23T23:44:34.702Z,97050.94
2018-08-23T23:47:03.334Z,97044.49
2018-08-23T23:49:31.824Z,97053.52
2018-08-23T23:52:00.324Z,97055.67
2018-08-23T23:54:28.853Z,97045.78
2018-08-23T23:56:57.366Z,97045.78
2018-08-23T23:59:25.855Z,97041.50
